sensor_id;sensor_type;location;lat;lon;timestamp;pressure;altitude;pressure_sealevel;temperature;humidity
81033;BME280;70514;52.478;6.102;2023-06-19T00:02:01;100860.22;;;25.88;34.65
81033;BME280;70514;52.478;6.102;2023-06-19T00:04:28;100842.75;;;25.69;34.49
81033;BME280;70514;52.478;6.102;2023-06-19T00:06:55;100862.25;;;25.83;34.85
81033;BME280;70514;52.478;6.102;2023-06-19T00:09:22;100865.91;;;25.80;34.83
81033;BME280;70514;52.478;6.102;2023-06-19T00:11:49;100863.50;;;25.75;34.96
81033;BME280;70514;52.478;6.102;2023-06-19T00:14:15;100844.09;;;25.61;34.62
81033;BME280;70514;52.478;6.102;2023-06-19T00:16:43;100860.72;;;25.78;34.67
81033;BME280;70514;52.478;6.102;2023-06-19T00:19:10;100872.00;;;25.80;34.65
81033;BME280;70514;52.478;6.102;2023-06-19T00:21:38;100842.31;;;25.61;34.72
81033;BME280;70514;52.478;6.102;2023-06-19T00:24:05;100865.31;;;25.75;34.91
81033;BME280;70514;52.478;6.102;2023-06-19T00:26:32;100860.25;;;25.70;34.80
81033;BME280;70514;52.478;6.102;2023-06-19T00:28:59;100856.69;;;25.71;34.87
81033;BME280;70514;52.478;6.102;2023-06-19T00:31:26;100866.84;;;25.79;35.02
81033;BME280;70514;52.478;6.102;2023-06-19T00:33:54;100833.22;;;25.67;34.69
81033;BME280;70514;52.478;6.102;2023-06-19T00:36:21;100854.06;;;25.87;35.04
81033;BME280;70514;52.478;6.102;2023-06-19T00:38:50;100860.13;;;25.89;34.53
81033;BME280;70514;52.478;6.102;2023-06-19T00:41:16;100863.78;;;25.87;34.56
81033;BME280;70514;52.478;6.102;2023-06-19T00:43:44;100859.44;;;25.86;35.01
81033;BME280;70514;52.478;6.102;2023-06-19T00:46:11;100855.38;;;25.80;35.02
81033;BME280;70514;52.478;6.102;2023-06-19T00:48:39;100860.53;;;25.81;35.13
81033;BME280;70514;52.478;6.102;2023-06-19T00:51:06;100829.72;;;25.66;35.22
81033;BME280;70514;52.478;6.102;2023-06-19T00:53:33;100862.69;;;25.91;34.63
81033;BME280;70514;52.478;6.102;2023-06-19T00:56:01;100859.63;;;25.98;35.10
81033;BME280;70514;52.478;6.102;2023-06-19T00:58:30;100856.66;;;26.04;34.64
81033;BME280;70514;52.478;6.102;2023-06-19T01:00:57;100859.69;;;26.12;34.81
81033;BME280;70514;52.478;6.102;2023-06-19T01:03:35;100864.66;;;26.18;34.92
81033;BME280;70514;52.478;6.102;2023-06-19T01:06:07;100857.50;;;26.20;34.47
81033;BME280;70514;52.478;6.102;2023-06-19T01:08:43;100859.13;;;26.23;34.85
81033;BME280;70514;52.478;6.102;2023-06-19T01:11:15;100857.88;;;26.30;34.99
81033;BME280;70514;52.478;6.102;2023-06-19T01:13:58;100837.84;;;26.26;34.71
81033;BME280;70514;52.478;6.102;2023-06-19T01:16:28;100863.06;;;26.47;34.60
81033;BME280;70514;52.478;6.102;2023-06-19T01:18:56;100854.94;;;26.50;34.75
81033;BME280;70514;52.478;6.102;2023-06-19T01:21:24;100863.72;;;26.51;34.93
81033;BME280;70514;52.478;6.102;2023-06-19T01:23:51;100866.94;;;26.56;34.81
81033;BME280;70514;52.478;6.102;2023-06-19T01:26:18;100869.50;;;26.57;34.67
81033;BME280;70514;52.478;6.102;2023-06-19T01:28:45;100863.53;;;26.54;35.05
81033;BME280;70514;52.478;6.102;2023-06-19T01:31:20;100861.47;;;26.59;35.08
81033;BME280;70514;52.478;6.102;2023-06-19T01:33:49;100861.03;;;26.67;34.96
81033;BME280;70514;52.478;6.102;2023-06-19T01:36:18;100864.66;;;26.80;35.04
81033;BME280;70514;52.478;6.102;2023-06-19T01:38:47;100865.44;;;26.82;34.83
81033;BME280;70514;52.478;6.102;2023-06-19T01:41:15;100865.16;;;26.86;35.18
81033;BME280;70514;52.478;6.102;2023-06-19T01:43:45;100862.72;;;26.83;35.05
81033;BME280;70514;52.478;6.102;2023-06-19T01:46:12;100883.16;;;26.80;35.06
81033;BME280;70514;52.478;6.102;2023-06-19T01:48:39;100880.38;;;26.67;35.65
81033;BME280;70514;52.478;6.102;2023-06-19T01:51:06;100879.69;;;26.63;35.52
81033;BME280;70514;52.478;6.102;2023-06-19T01:53:33;100882.75;;;26.72;35.63
81033;BME280;70514;52.478;6.102;2023-06-19T01:56:01;100862.81;;;26.66;35.85
81033;BME280;70514;52.478;6.102;2023-06-19T01:58:28;100874.53;;;26.62;35.77
81033;BME280;70514;52.478;6.102;2023-06-19T02:00:55;100883.31;;;26.62;36.08
81033;BME280;70514;52.478;6.102;2023-06-19T02:03:22;100885.66;;;26.67;35.85
81033;BME280;70514;52.478;6.102;2023-06-19T02:05:49;100876.38;;;26.60;36.09
81033;BME280;70514;52.478;6.102;2023-06-19T02:08:15;100893.09;;;26.60;35.81
81033;BME280;70514;52.478;6.102;2023-06-19T02:10:42;100890.03;;;26.68;35.89
81033;BME280;70514;52.478;6.102;2023-06-19T02:13:09;100878.22;;;26.74;35.78
81033;BME280;70514;52.478;6.102;2023-06-19T02:15:35;100867.66;;;26.74;35.60
81033;BME280;70514;52.478;6.102;2023-06-19T02:18:03;100881.28;;;26.97;35.25
81033;BME280;70514;52.478;6.102;2023-06-19T02:20:30;100886.41;;;27.15;35.30
81033;BME280;70514;52.478;6.102;2023-06-19T02:22:56;100888.16;;;27.30;34.55
81033;BME280;70514;52.478;6.102;2023-06-19T02:25:23;100882.94;;;27.42;34.78
81033;BME280;70514;52.478;6.102;2023-06-19T02:27:50;100890.91;;;27.57;34.24
81033;BME280;70514;52.478;6.102;2023-06-19T02:30:17;100890.16;;;27.69;34.28
81033;BME280;70514;52.478;6.102;2023-06-19T02:32:43;100892.25;;;27.78;34.55
81033;BME280;70514;52.478;6.102;2023-06-19T02:35:11;100890.94;;;27.85;33.90
81033;BME280;70514;52.478;6.102;2023-06-19T02:37:38;100895.84;;;27.91;34.50
81033;BME280;70514;52.478;6.102;2023-06-19T02:40:05;100892.81;;;27.97;34.09
81033;BME280;70514;52.478;6.102;2023-06-19T02:42:33;100902.16;;;28.03;34.24
81033;BME280;70514;52.478;6.102;2023-06-19T02:44:59;100903.59;;;28.08;34.10
81033;BME280;70514;52.478;6.102;2023-06-19T02:47:30;100900.66;;;28.13;34.06
81033;BME280;70514;52.478;6.102;2023-06-19T02:50:01;100899.44;;;28.18;33.77
81033;BME280;70514;52.478;6.102;2023-06-19T02:52:30;100908.19;;;28.19;33.65
81033;BME280;70514;52.478;6.102;2023-06-19T02:54:57;100908.97;;;28.21;33.90
81033;BME280;70514;52.478;6.102;2023-06-19T02:57:24;100925.03;;;28.32;33.63
81033;BME280;70514;52.478;6.102;2023-06-19T02:59:50;100897.59;;;28.19;34.01
81033;BME280;70514;52.478;6.102;2023-06-19T03:02:17;100917.38;;;28.27;34.17
81033;BME280;70514;52.478;6.102;2023-06-19T03:04:44;100931.25;;;28.31;33.69
81033;BME280;70514;52.478;6.102;2023-06-19T03:07:11;100931.34;;;28.29;34.04
81033;BME280;70514;52.478;6.102;2023-06-19T03:09:40;100934.28;;;28.25;33.90
81033;BME280;70514;52.478;6.102;2023-06-19T03:12:08;100913.91;;;28.13;34.03
81033;BME280;70514;52.478;6.102;2023-06-19T03:14:35;100932.69;;;28.08;33.81
81033;BME280;70514;52.478;6.102;2023-06-19T03:17:02;100935.16;;;28.11;34.17
81033;BME280;70514;52.478;6.102;2023-06-19T03:19:29;100923.91;;;28.08;34.38
81033;BME280;70514;52.478;6.102;2023-06-19T03:21:56;100923.59;;;27.98;33.99
81033;BME280;70514;52.478;6.102;2023-06-19T03:24:22;100920.88;;;27.85;34.11
81033;BME280;70514;52.478;6.102;2023-06-19T03:26:49;100943.28;;;27.94;34.34
81033;BME280;70514;52.478;6.102;2023-06-19T03:29:16;100949.44;;;27.80;34.76
81033;BME280;70514;52.478;6.102;2023-06-19T03:31:43;100942.16;;;27.70;34.96
81033;BME280;70514;52.478;6.102;2023-06-19T03:34:09;100909.03;;;27.48;35.36
81033;BME280;70514;52.478;6.102;2023-06-19T03:36:36;100943.94;;;27.69;34.97
81033;BME280;70514;52.478;6.102;2023-06-19T03:39:03;100947.25;;;27.73;35.28
81033;BME280;70514;52.478;6.102;2023-06-19T03:41:30;100954.91;;;27.77;34.78
81033;BME280;70514;52.478;6.102;2023-06-19T03:43:57;100954.53;;;27.83;34.86
81033;BME280;70514;52.478;6.102;2023-06-19T03:46:24;100964.94;;;27.86;34.72
81033;BME280;70514;52.478;6.102;2023-06-19T03:48:50;100964.25;;;27.83;34.65
81033;BME280;70514;52.478;6.102;2023-06-19T03:51:17;100968.06;;;27.79;35.17
81033;BME280;70514;52.478;6.102;2023-06-19T03:53:44;100962.69;;;27.80;35.16
81033;BME280;70514;52.478;6.102;2023-06-19T03:56:11;100965.78;;;27.73;35.12
81033;BME280;70514;52.478;6.102;2023-06-19T03:58:37;100973.72;;;27.73;35.31
81033;BME280;70514;52.478;6.102;2023-06-19T04:01:04;100981.38;;;27.77;35.10
81033;BME280;70514;52.478;6.102;2023-06-19T04:03:32;100970.91;;;27.76;34.99
81033;BME280;70514;52.478;6.102;2023-06-19T04:05:59;100969.38;;;27.72;35.04
81033;BME280;70514;52.478;6.102;2023-06-19T04:08:25;100976.28;;;27.74;35.30
81033;BME280;70514;52.478;6.102;2023-06-19T04:10:52;100976.75;;;27.67;35.22
81033;BME280;70514;52.478;6.102;2023-06-19T04:13:19;100975.50;;;27.58;35.77
81033;BME280;70514;52.478;6.102;2023-06-19T04:15:47;100972.94;;;27.57;35.96
81033;BME280;70514;52.478;6.102;2023-06-19T04:18:17;100971.81;;;27.61;35.64
81033;BME280;70514;52.478;6.102;2023-06-19T04:20:43;100970.84;;;27.62;35.65
81033;BME280;70514;52.478;6.102;2023-06-19T04:23:10;100982.22;;;27.64;35.77
81033;BME280;70514;52.478;6.102;2023-06-19T04:25:37;100979.75;;;27.61;35.70
81033;BME280;70514;52.478;6.102;2023-06-19T04:28:04;100977.78;;;27.64;35.83
81033;BME280;70514;52.478;6.102;2023-06-19T04:30:31;100979.66;;;27.62;35.83
81033;BME280;70514;52.478;6.102;2023-06-19T04:32:58;100983.06;;;27.64;35.77
81033;BME280;70514;52.478;6.102;2023-06-19T04:35:26;100980.88;;;27.57;36.20
81033;BME280;70514;52.478;6.102;2023-06-19T04:37:53;100991.19;;;27.61;36.10
81033;BME280;70514;52.478;6.102;2023-06-19T04:40:20;100993.94;;;27.60;36.26
81033;BME280;70514;52.478;6.102;2023-06-19T04:42:47;100987.13;;;27.56;36.32
81033;BME280;70514;52.478;6.102;2023-06-19T04:45:14;100996.56;;;27.60;36.02
81033;BME280;70514;52.478;6.102;2023-06-19T04:47:41;100997.50;;;27.59;36.42
81033;BME280;70514;52.478;6.102;2023-06-19T04:50:20;100996.28;;;27.64;36.26
81033;BME280;70514;52.478;6.102;2023-06-19T04:52:48;101004.59;;;27.72;36.18
81033;BME280;70514;52.478;6.102;2023-06-19T04:55:18;101000.56;;;27.81;36.15
81033;BME280;70514;52.478;6.102;2023-06-19T04:57:45;101010.81;;;27.87;35.92
81033;BME280;70514;52.478;6.102;2023-06-19T05:00:11;101000.94;;;27.89;35.80
81033;BME280;70514;52.478;6.102;2023-06-19T05:02:41;100986.66;;;27.77;35.87
81033;BME280;70514;52.478;6.102;2023-06-19T05:05:10;101009.00;;;27.87;35.76
81033;BME280;70514;52.478;6.102;2023-06-19T05:07:37;101018.34;;;27.93;35.67
81033;BME280;70514;52.478;6.102;2023-06-19T05:10:04;101009.47;;;27.94;35.47
81033;BME280;70514;52.478;6.102;2023-06-19T05:12:34;101006.81;;;27.80;35.60
81033;BME280;70514;52.478;6.102;2023-06-19T05:15:01;100993.19;;;27.72;35.73
81033;BME280;70514;52.478;6.102;2023-06-19T05:17:28;101020.41;;;27.88;35.25
81033;BME280;70514;52.478;6.102;2023-06-19T05:19:55;101034.22;;;27.93;35.26
81033;BME280;70514;52.478;6.102;2023-06-19T05:22:21;101028.75;;;27.96;35.51
81033;BME280;70514;52.478;6.102;2023-06-19T05:24:50;101034.06;;;27.96;35.37
81033;BME280;70514;52.478;6.102;2023-06-19T05:27:17;101034.91;;;27.97;35.50
81033;BME280;70514;52.478;6.102;2023-06-19T05:29:44;101046.44;;;27.96;35.34
81033;BME280;70514;52.478;6.102;2023-06-19T05:32:10;101024.97;;;27.86;35.41
81033;BME280;70514;52.478;6.102;2023-06-19T05:34:37;101047.00;;;28.01;35.93
81033;BME280;70514;52.478;6.102;2023-06-19T05:37:04;101050.44;;;28.03;35.75
81033;BME280;70514;52.478;6.102;2023-06-19T05:39:31;101060.91;;;28.04;35.99
81033;BME280;70514;52.478;6.102;2023-06-19T05:41:58;101066.88;;;28.08;35.52
81033;BME280;70514;52.478;6.102;2023-06-19T05:44:24;101059.81;;;28.08;35.58
81033;BME280;70514;52.478;6.102;2023-06-19T05:46:51;101032.34;;;27.95;35.92
81033;BME280;70514;52.478;6.102;2023-06-19T05:49:18;101062.84;;;28.16;35.56
81033;BME280;70514;52.478;6.102;2023-06-19T05:51:45;101068.22;;;28.15;35.39
81033;BME280;70514;52.478;6.102;2023-06-19T05:54:12;101076.44;;;28.10;35.35
81033;BME280;70514;52.478;6.102;2023-06-19T05:56:38;101065.81;;;27.96;36.06
81033;BME280;70514;52.478;6.102;2023-06-19T05:59:05;101074.78;;;27.94;36.02
81033;BME280;70514;52.478;6.102;2023-06-19T06:01:32;101085.28;;;27.95;36.33
81033;BME280;70514;52.478;6.102;2023-06-19T06:03:59;101083.50;;;27.96;36.27
81033;BME280;70514;52.478;6.102;2023-06-19T06:06:28;101081.72;;;27.96;36.31
81033;BME280;70514;52.478;6.102;2023-06-19T06:08:55;101085.94;;;27.99;36.48
81033;BME280;70514;52.478;6.102;2023-06-19T06:11:27;101095.44;;;28.03;36.06
81033;BME280;70514;52.478;6.102;2023-06-19T06:13:54;101089.47;;;27.99;36.23
81033;BME280;70514;52.478;6.102;2023-06-19T06:16:21;101103.97;;;28.08;36.28
81033;BME280;70514;52.478;6.102;2023-06-19T06:18:47;101111.69;;;28.11;36.03
81033;BME280;70514;52.478;6.102;2023-06-19T06:21:14;101110.72;;;28.13;36.11
81033;BME280;70514;52.478;6.102;2023-06-19T06:23:41;101109.56;;;28.17;35.69
81033;BME280;70514;52.478;6.102;2023-06-19T06:26:08;101112.13;;;28.19;36.00
81033;BME280;70514;52.478;6.102;2023-06-19T06:28:37;101120.91;;;28.19;35.86
81033;BME280;70514;52.478;6.102;2023-06-19T06:31:05;101110.94;;;28.09;36.49
81033;BME280;70514;52.478;6.102;2023-06-19T06:33:31;101103.91;;;27.94;36.80
81033;BME280;70514;52.478;6.102;2023-06-19T06:35:59;101117.25;;;27.92;36.87
81033;BME280;70514;52.478;6.102;2023-06-19T06:38:26;101112.13;;;27.89;36.72
81033;BME280;70514;52.478;6.102;2023-06-19T06:40:52;101130.56;;;27.90;36.86
81033;BME280;70514;52.478;6.102;2023-06-19T06:43:19;101104.53;;;27.83;37.01
81033;BME280;70514;52.478;6.102;2023-06-19T06:45:46;101131.50;;;27.89;37.27
81033;BME280;70514;52.478;6.102;2023-06-19T06:48:12;101100.56;;;27.76;36.81
81033;BME280;70514;52.478;6.102;2023-06-19T06:50:39;101129.72;;;27.90;37.21
81033;BME280;70514;52.478;6.102;2023-06-19T06:53:07;101134.66;;;27.96;37.17
81033;BME280;70514;52.478;6.102;2023-06-19T06:55:34;101139.31;;;28.07;36.55
81033;BME280;70514;52.478;6.102;2023-06-19T06:58:01;101138.47;;;28.06;36.54
81033;BME280;70514;52.478;6.102;2023-06-19T07:00:28;101140.91;;;28.09;36.59
81033;BME280;70514;52.478;6.102;2023-06-19T07:02:55;101140.25;;;28.06;36.87
81033;BME280;70514;52.478;6.102;2023-06-19T07:05:22;101129.84;;;28.03;36.76
81033;BME280;70514;52.478;6.102;2023-06-19T07:07:49;101146.28;;;28.23;36.76
81033;BME280;70514;52.478;6.102;2023-06-19T07:10:15;101159.13;;;28.29;36.54
81033;BME280;70514;52.478;6.102;2023-06-19T07:12:46;101157.25;;;28.31;36.76
81033;BME280;70514;52.478;6.102;2023-06-19T07:15:12;101149.03;;;28.36;36.77
81033;BME280;70514;52.478;6.102;2023-06-19T07:17:39;101139.94;;;28.26;36.30
81033;BME280;70514;52.478;6.102;2023-06-19T07:20:06;101162.56;;;28.46;36.69
81033;BME280;70514;52.478;6.102;2023-06-19T07:22:33;101161.34;;;28.51;36.07
81033;BME280;70514;52.478;6.102;2023-06-19T07:24:59;101170.91;;;28.54;36.06
81033;BME280;70514;52.478;6.102;2023-06-19T07:27:26;101174.59;;;28.51;36.24
81033;BME280;70514;52.478;6.102;2023-06-19T07:29:54;101175.66;;;28.49;36.31
81033;BME280;70514;52.478;6.102;2023-06-19T07:32:20;101176.31;;;28.38;36.55
81033;BME280;70514;52.478;6.102;2023-06-19T07:34:47;101184.69;;;28.30;36.90
81033;BME280;70514;52.478;6.102;2023-06-19T07:37:14;101183.25;;;28.25;36.86
81033;BME280;70514;52.478;6.102;2023-06-19T07:39:45;101188.75;;;28.22;36.97
81033;BME280;70514;52.478;6.102;2023-06-19T07:42:13;101183.72;;;28.17;37.03
81033;BME280;70514;52.478;6.102;2023-06-19T07:44:40;101188.66;;;28.23;36.55
81033;BME280;70514;52.478;6.102;2023-06-19T07:47:08;101193.78;;;28.26;36.55
81033;BME280;70514;52.478;6.102;2023-06-19T07:49:35;101185.81;;;28.26;36.49
81033;BME280;70514;52.478;6.102;2023-06-19T07:52:05;101196.91;;;28.33;36.64
81033;BME280;70514;52.478;6.102;2023-06-19T07:54:34;101202.44;;;28.44;36.69
81033;BME280;70514;52.478;6.102;2023-06-19T07:57:01;101209.41;;;28.45;36.09
81033;BME280;70514;52.478;6.102;2023-06-19T07:59:27;101207.72;;;28.44;36.61
81033;BME280;70514;52.478;6.102;2023-06-19T08:01:54;101211.03;;;28.48;35.98
81033;BME280;70514;52.478;6.102;2023-06-19T08:04:21;101192.28;;;28.37;35.85
81033;BME280;70514;52.478;6.102;2023-06-19T08:06:47;101219.63;;;28.51;36.29
81033;BME280;70514;52.478;6.102;2023-06-19T08:09:14;101236.22;;;28.55;35.96
81033;BME280;70514;52.478;6.102;2023-06-19T08:11:41;101225.22;;;28.61;35.36
81033;BME280;70514;52.478;6.102;2023-06-19T08:14:07;101228.84;;;28.60;35.25
81033;BME280;70514;52.478;6.102;2023-06-19T08:16:34;101228.75;;;28.61;35.46
81033;BME280;70514;52.478;6.102;2023-06-19T08:19:01;101208.97;;;28.53;34.91
81033;BME280;70514;52.478;6.102;2023-06-19T08:21:28;101239.63;;;28.71;35.39
81033;BME280;70514;52.478;6.102;2023-06-19T08:23:55;101237.59;;;28.76;34.75
81033;BME280;70514;52.478;6.102;2023-06-19T08:26:22;101238.16;;;28.81;34.77
81033;BME280;70514;52.478;6.102;2023-06-19T08:28:48;101214.09;;;28.70;34.70
81033;BME280;70514;52.478;6.102;2023-06-19T08:31:15;101245.75;;;28.87;34.85
81033;BME280;70514;52.478;6.102;2023-06-19T08:33:43;101244.81;;;28.88;34.39
81033;BME280;70514;52.478;6.102;2023-06-19T08:36:09;101215.56;;;28.76;34.45
81033;BME280;70514;52.478;6.102;2023-06-19T08:38:36;101223.22;;;28.80;34.83
81033;BME280;70514;52.478;6.102;2023-06-19T08:41:03;101245.56;;;28.90;34.84
81033;BME280;70514;52.478;6.102;2023-06-19T08:43:29;101249.25;;;28.88;34.40
81033;BME280;70514;52.478;6.102;2023-06-19T08:46:09;101244.59;;;28.77;34.81
81033;BME280;70514;52.478;6.102;2023-06-19T08:48:38;101246.38;;;28.77;34.72
81033;BME280;70514;52.478;6.102;2023-06-19T08:51:05;101242.22;;;28.72;34.88
81033;BME280;70514;52.478;6.102;2023-06-19T08:53:35;101259.84;;;28.88;35.28
81033;BME280;70514;52.478;6.102;2023-06-19T08:56:03;101239.63;;;28.71;35.06
81033;BME280;70514;52.478;6.102;2023-06-19T08:58:29;101272.53;;;28.83;34.75
81033;BME280;70514;52.478;6.102;2023-06-19T09:00:59;101272.63;;;28.81;35.25
81033;BME280;70514;52.478;6.102;2023-06-19T09:03:25;101249.50;;;28.69;35.26
81033;BME280;70514;52.478;6.102;2023-06-19T09:05:52;101277.84;;;28.83;34.61
81033;BME280;70514;52.478;6.102;2023-06-19T09:08:20;101264.47;;;28.70;34.79
81033;BME280;70514;52.478;6.102;2023-06-19T09:13:23;101301.06;;;28.93;34.79
81033;BME280;70514;52.478;6.102;2023-06-19T09:16:04;101278.03;;;28.80;34.54
81033;BME280;70514;52.478;6.102;2023-06-19T09:18:42;101306.19;;;28.96;34.55
81033;BME280;70514;52.478;6.102;2023-06-19T09:21:18;101309.00;;;28.93;34.74
81033;BME280;70514;52.478;6.102;2023-06-19T09:23:46;101302.69;;;28.96;34.30
81033;BME280;70514;52.478;6.102;2023-06-19T09:26:16;101300.13;;;28.94;34.82
81033;BME280;70514;52.478;6.102;2023-06-19T09:28:44;101301.06;;;28.93;34.55
81033;BME280;70514;52.478;6.102;2023-06-19T09:31:11;101317.38;;;29.15;34.38
81033;BME280;70514;52.478;6.102;2023-06-19T09:33:39;101305.31;;;29.24;34.18
81033;BME280;70514;52.478;6.102;2023-06-19T09:36:05;101288.09;;;29.17;33.69
81033;BME280;70514;52.478;6.102;2023-06-19T09:38:35;101309.72;;;29.39;33.66
81033;BME280;70514;52.478;6.102;2023-06-19T09:41:05;101312.63;;;29.49;33.69
81033;BME280;70514;52.478;6.102;2023-06-19T09:43:43;101266.78;;;29.33;33.12
81033;BME280;70514;52.478;6.102;2023-06-19T09:46:10;101312.63;;;29.63;33.51
81033;BME280;70514;52.478;6.102;2023-06-19T09:48:45;101285.16;;;29.50;33.36
81033;BME280;70514;52.478;6.102;2023-06-19T09:51:20;101303.69;;;29.64;33.54
81033;BME280;70514;52.478;6.102;2023-06-19T09:53:48;101306.25;;;29.66;33.16
81033;BME280;70514;52.478;6.102;2023-06-19T09:56:16;101278.69;;;29.54;33.25
81033;BME280;70514;52.478;6.102;2023-06-19T09:58:50;101315.63;;;29.71;33.47
81033;BME280;70514;52.478;6.102;2023-06-19T10:01:19;101315.63;;;29.71;33.17
81033;BME280;70514;52.478;6.102;2023-06-19T10:03:46;101320.00;;;29.72;32.61
81033;BME280;70514;52.478;6.102;2023-06-19T10:06:16;101306.91;;;29.69;33.03
81033;BME280;70514;52.478;6.102;2023-06-19T10:08:44;101331.19;;;29.77;32.66
81033;BME280;70514;52.478;6.102;2023-06-19T10:11:12;101334.31;;;29.84;32.93
81033;BME280;70514;52.478;6.102;2023-06-19T10:13:42;101318.00;;;29.90;32.47
81033;BME280;70514;52.478;6.102;2023-06-19T10:16:22;101322.72;;;29.99;32.76
81033;BME280;70514;52.478;6.102;2023-06-19T10:18:49;101328.63;;;30.17;32.05
81033;BME280;70514;52.478;6.102;2023-06-19T10:21:21;101335.75;;;30.16;32.60
81033;BME280;70514;52.478;6.102;2023-06-19T10:23:55;101329.16;;;30.09;32.56
81033;BME280;70514;52.478;6.102;2023-06-19T10:26:33;101337.00;;;30.11;32.02
81033;BME280;70514;52.478;6.102;2023-06-19T10:29:01;101343.84;;;30.15;32.31
81033;BME280;70514;52.478;6.102;2023-06-19T10:31:28;101334.06;;;30.15;32.11
81033;BME280;70514;52.478;6.102;2023-06-19T10:33:55;101353.09;;;30.22;32.20
81033;BME280;70514;52.478;6.102;2023-06-19T10:36:23;101310.09;;;30.03;31.84
81033;BME280;70514;52.478;6.102;2023-06-19T10:38:52;101314.06;;;30.10;32.15
81033;BME280;70514;52.478;6.102;2023-06-19T10:41:20;101336.00;;;30.26;32.36
81033;BME280;70514;52.478;6.102;2023-06-19T10:43:59;101315.56;;;30.14;32.29
81033;BME280;70514;52.478;6.102;2023-06-19T10:46:30;101339.31;;;30.29;32.19
81033;BME280;70514;52.478;6.102;2023-06-19T10:48:58;101340.03;;;30.31;32.31
81033;BME280;70514;52.478;6.102;2023-06-19T10:51:27;101319.31;;;30.24;31.94
81033;BME280;70514;52.478;6.102;2023-06-19T10:53:55;101356.81;;;30.46;31.81
81033;BME280;70514;52.478;6.102;2023-06-19T10:56:23;101319.47;;;30.35;31.74
81033;BME280;70514;52.478;6.102;2023-06-19T10:59:16;101344.72;;;30.55;31.54
81033;BME280;70514;52.478;6.102;2023-06-19T11:01:47;101317.81;;;30.47;31.39
81033;BME280;70514;52.478;6.102;2023-06-19T11:04:15;101336.75;;;30.55;31.66
81033;BME280;70514;52.478;6.102;2023-06-19T11:06:44;101329.47;;;30.44;32.00
81033;BME280;70514;52.478;6.102;2023-06-19T11:09:12;101344.94;;;30.52;31.96
81033;BME280;70514;52.478;6.102;2023-06-19T11:11:47;101330.41;;;30.43;31.82
81033;BME280;70514;52.478;6.102;2023-06-19T11:14:15;101319.41;;;30.49;31.64
81033;BME280;70514;52.478;6.102;2023-06-19T11:16:47;101328.69;;;30.69;31.70
81033;BME280;70514;52.478;6.102;2023-06-19T11:19:19;101338.81;;;30.76;31.02
81033;BME280;70514;52.478;6.102;2023-06-19T11:21:51;101312.97;;;30.66;31.37
81033;BME280;70514;52.478;6.102;2023-06-19T11:24:19;101338.94;;;30.88;31.09
81033;BME280;70514;52.478;6.102;2023-06-19T11:26:48;101342.00;;;30.94;31.18
81033;BME280;70514;52.478;6.102;2023-06-19T11:29:23;101339.78;;;31.01;31.00
81033;BME280;70514;52.478;6.102;2023-06-19T11:31:53;101328.53;;;31.10;30.95
81033;BME280;70514;52.478;6.102;2023-06-19T11:34:31;101335.38;;;31.14;30.97
81033;BME280;70514;52.478;6.102;2023-06-19T11:36:58;101334.84;;;31.09;31.06
81033;BME280;70514;52.478;6.102;2023-06-19T11:39:24;101318.50;;;31.01;30.77
81033;BME280;70514;52.478;6.102;2023-06-19T11:41:51;101333.44;;;31.16;30.94
81033;BME280;70514;52.478;6.102;2023-06-19T11:44:20;101315.75;;;31.15;30.65
81033;BME280;70514;52.478;6.102;2023-06-19T11:46:46;101343.66;;;31.35;30.51
81033;BME280;70514;52.478;6.102;2023-06-19T11:49:15;101341.63;;;31.38;30.34
81033;BME280;70514;52.478;6.102;2023-06-19T11:51:45;101336.50;;;31.48;30.35
81033;BME280;70514;52.478;6.102;2023-06-19T11:54:12;101344.16;;;31.52;30.11
81033;BME280;70514;52.478;6.102;2023-06-19T11:56:41;101344.06;;;31.54;30.38
81033;BME280;70514;52.478;6.102;2023-06-19T11:59:08;101344.72;;;31.57;30.22
81033;BME280;70514;52.478;6.102;2023-06-19T12:01:36;101336.78;;;31.56;30.38
81033;BME280;70514;52.478;6.102;2023-06-19T12:04:03;101337.78;;;31.55;30.34
81033;BME280;70514;52.478;6.102;2023-06-19T12:06:30;101352.69;;;31.57;30.20
81033;BME280;70514;52.478;6.102;2023-06-19T12:08:57;101326.19;;;31.43;30.07
81033;BME280;70514;52.478;6.102;2023-06-19T12:11:24;101350.03;;;31.57;30.24
81033;BME280;70514;52.478;6.102;2023-06-19T12:13:51;101344.78;;;31.56;30.14
81033;BME280;70514;52.478;6.102;2023-06-19T12:16:19;101329.56;;;31.45;30.23
81033;BME280;70514;52.478;6.102;2023-06-19T12:18:46;101360.34;;;31.62;30.04
81033;BME280;70514;52.478;6.102;2023-06-19T12:21:13;101353.97;;;31.64;29.95
81033;BME280;70514;52.478;6.102;2023-06-19T12:23:58;101342.13;;;31.69;29.67
81033;BME280;70514;52.478;6.102;2023-06-19T12:26:25;101351.50;;;31.74;29.74
81033;BME280;70514;52.478;6.102;2023-06-19T12:28:52;101351.06;;;31.80;29.70
81033;BME280;70514;52.478;6.102;2023-06-19T12:31:19;101349.97;;;31.83;29.35
81033;BME280;70514;52.478;6.102;2023-06-19T12:33:46;101363.19;;;31.84;29.58
81033;BME280;70514;52.478;6.102;2023-06-19T12:36:15;101329.56;;;31.71;29.42
81033;BME280;70514;52.478;6.102;2023-06-19T12:38:41;101356.25;;;31.82;29.42
81033;BME280;70514;52.478;6.102;2023-06-19T12:41:08;101333.19;;;31.70;29.65
81033;BME280;70514;52.478;6.102;2023-06-19T12:43:34;101362.75;;;31.90;29.54
81033;BME280;70514;52.478;6.102;2023-06-19T12:46:01;101363.25;;;31.95;29.22
81033;BME280;70514;52.478;6.102;2023-06-19T12:48:28;101366.94;;;32.05;29.30
81033;BME280;70514;52.478;6.102;2023-06-19T12:50:55;101369.06;;;32.13;29.02
81033;BME280;70514;52.478;6.102;2023-06-19T12:53:21;101381.25;;;32.17;29.05
81033;BME280;70514;52.478;6.102;2023-06-19T12:55:52;101370.09;;;32.23;29.09
81033;BME280;70514;52.478;6.102;2023-06-19T12:58:28;101377.88;;;32.26;28.72